| time (UTC) | temp F | wind direction | speed knots | gust knots | rain 1hr in | rain 24hr in | rain mn in | humidity % | barometer mb |
| 20260502233206 | 65 | 262 | 2.6 | 11.3 | 0.00 | 0.00 | 0.00 | 35 | 1011.6 |
| 20260502232705 | 65 | 280 | 5.2 | 13.0 | 0.00 | 0.00 | 0.00 | 35 | 1011.6 |
| 20260502232205 | 65 | 287 | 4.3 | 7.8 | 0.00 | 0.00 | 0.00 | 34 | 1011.7 |
| 20260502231705 | 65 | 243 | 1.7 | 5.2 | 0.00 | 0.00 | 0.00 | 35 | 1011.8 |
| 20260502231206 | 65 | 210 | 2.6 | 7.0 | 0.00 | 0.00 | 0.00 | 34 | 1011.7 |
| 20260502230206 | 65 | 255 | 1.7 | 6.1 | 0.00 | 0.00 | 0.00 | 34 | 1011.8 |
| 20260502225705 | 66 | 241 | 3.5 | 7.8 | 0.00 | 0.00 | 0.00 | 34 | 1011.8 |
| 20260502225205 | 66 | 218 | 3.5 | 7.8 | 0.00 | 0.00 | 0.00 | 33 | 1011.9 |
| 20260502224706 | 66 | 200 | 4.3 | 12.2 | 0.00 | 0.00 | 0.00 | 33 | 1011.8 |
| 20260502224206 | 66 | 247 | 1.7 | 6.1 | 0.00 | 0.00 | 0.00 | 35 | 1011.9 |
| 20260502223706 | 66 | 234 | 1.7 | 7.8 | 0.00 | 0.00 | 0.00 | 35 | 1012.0 |
| 20260502223205 | 66 | 252 | 3.5 | 10.4 | 0.00 | 0.00 | 0.00 | 33 | 1012.1 |
| 20260502222705 | 65 | 251 | 0.9 | 4.3 | 0.00 | 0.00 | 0.00 | 35 | 1012.1 |
| 20260502222205 | 65 | 247 | 2.6 | 6.1 | 0.00 | 0.00 | 0.00 | 34 | 1012.2 |
| 20260502221706 | 65 | 253 | 2.6 | 6.1 | 0.00 | 0.00 | 0.00 | 35 | 1012.2 |
| 20260502221205 | 65 | 221 | 4.3 | 10.4 | 0.00 | 0.00 | 0.00 | 33 | 1012.2 |
| 20260502220705 | 65 | 252 | 1.7 | 10.4 | 0.00 | 0.00 | 0.00 | 35 | 1012.3 |
| 20260502220207 | 65 | 254 | 0.9 | 10.4 | 0.00 | 0.00 | 0.00 | 35 | 1012.4 |
| 20260502215705 | 65 | 175 | 4.3 | 10.4 | 0.00 | 0.00 | 0.00 | 34 | 1012.6 |
| 20260502215206 | 65 | 284 | 4.3 | 10.4 | 0.00 | 0.00 | 0.00 | 34 | 1012.6 |
| 20260502214205 | 65 | 244 | 3.5 | 7.8 | 0.00 | 0.00 | 0.00 | 34 | 1012.7 |
| 20260502213706 | 66 | 260 | 5.2 | 10.4 | 0.00 | 0.00 | 0.00 | 32 | 1012.8 |
| 20260502212706 | 67 | 261 | 5.2 | 10.4 | 0.00 | 0.00 | 0.00 | 32 | 1012.9 |
| 20260502212206 | 68 | 223 | 4.3 | 8.7 | 0.00 | 0.00 | 0.00 | 33 | 1013.0 |
| 20260502211705 | 67 | 263 | 4.3 | 7.8 | 0.00 | 0.00 | 0.00 | 35 | 1013.0 |
| 20260502211205 | 66 | 279 | 3.5 | 8.7 | 0.00 | 0.00 | 0.00 | 35 | 1013.2 |
| 20260502210206 | 66 | 231 | 3.5 | 10.4 | 0.00 | 0.00 | 0.00 | 33 | 1013.3 |
| 20260502205705 | 66 | 290 | 5.2 | 14.8 | 0.00 | 0.00 | 0.00 | 34 | 1013.5 |
| 20260502205205 | 66 | 200 | 5.2 | 11.3 | 0.00 | 0.00 | 0.00 | 34 | 1013.6 |
| 20260502203205 | 66 | 263 | 4.3 | 7.8 | 0.00 | 0.00 | 0.00 | 34 | 1014.0 |
| 20260502202706 | 66 | 225 | 4.3 | 11.3 | 0.00 | 0.00 | 0.00 | 35 | 1014.1 |
| 20260502201706 | 65 | 218 | 5.2 | 8.7 | 0.00 | 0.00 | 0.00 | 35 | 1014.4 |
| 20260502201206 | 65 | 141 | 1.7 | 7.0 | 0.00 | 0.00 | 0.00 | 37 | 1014.4 |
| 20260502200706 | 65 | 250 | 6.1 | 13.9 | 0.00 | 0.00 | 0.00 | 36 | 1014.7 |
| 20260502200205 | 65 | 201 | 7.8 | 20.0 | 0.00 | 0.00 | 0.00 | 35 | 1014.7 |
| 20260502195705 | 65 | 257 | 3.5 | 10.4 | 0.00 | 0.00 | 0.00 | 35 | 1014.8 |
| 20260502195206 | 65 | 250 | 3.5 | 7.0 | 0.00 | 0.00 | 0.00 | 36 | 1015.0 |
| 20260502194205 | 64 | 264 | 2.6 | 8.7 | 0.00 | 0.00 | 0.00 | 36 | 1015.1 |
| 20260502193707 | 64 | 255 | 3.5 | 8.7 | 0.00 | 0.00 | 0.00 | 36 | 1015.2 |
| 20260502193206 | 63 | 263 | 3.5 | 10.4 | 0.00 | 0.00 | 0.00 | 35 | 1015.3 |
| 20260502192206 | 62 | 178 | 7.0 | 12.2 | 0.00 | 0.00 | 0.00 | 37 | 1015.5 |
| 20260502191706 | 62 | 233 | 4.3 | 10.4 | 0.00 | 0.00 | 0.00 | 37 | 1015.7 |
| 20260502191206 | 62 | 189 | 5.2 | 8.7 | 0.00 | 0.00 | 0.00 | 36 | 1015.8 |
| 20260502190206 | 62 | 217 | 4.3 | 13.0 | 0.00 | 0.00 | 0.00 | 36 | 1016.0 |
| 20260502185205 | 62 | 219 | 2.6 | 7.8 | 0.00 | 0.00 | 0.00 | 35 | 1016.2 |
| 20260502184706 | 61 | 213 | 1.7 | 10.4 | 0.00 | 0.00 | 0.00 | 39 | 1016.2 |
| 20260502184206 | 61 | 211 | 2.6 | 6.1 | 0.00 | 0.00 | 0.00 | 35 | 1016.4 |
| 20260502183705 | 61 | 261 | 5.2 | 13.9 | 0.00 | 0.00 | 0.00 | 36 | 1016.6 |
| 20260502183206 | 61 | 257 | 2.6 | 7.8 | 0.00 | 0.00 | 0.00 | 37 | 1016.6 |
| 20260502182706 | 60 | 257 | 6.1 | 10.4 | 0.00 | 0.00 | 0.00 | 39 | 1016.7 |
| 20260502182206 | 60 | 269 | 4.3 | 8.7 | 0.00 | 0.00 | 0.00 | 36 | 1016.8 |
| 20260502181206 | 60 | 182 | 5.2 | 10.4 | 0.00 | 0.00 | 0.00 | 37 | 1016.8 |
| 20260502180706 | 60 | 197 | 4.3 | 10.4 | 0.00 | 0.00 | 0.00 | 38 | 1017.0 |
| 20260502180206 | 60 | 297 | 2.6 | 6.1 | 0.00 | 0.00 | 0.00 | 38 | 1017.1 |
| 20260502170206 | 58 | 258 | 4.3 | 8.7 | 0.00 | 0.00 | 0.00 | 38 | 1018.1 |
| 20260502164206 | 57 | 267 | 4.3 | 10.4 | 0.00 | 0.00 | 0.00 | 41 | 1018.4 |
| 20260502163706 | 57 | 269 | 1.7 | 11.3 | 0.00 | 0.00 | 0.00 | 38 | 1018.5 |
| 20260502161706 | 56 | 256 | 5.2 | 11.3 | 0.00 | 0.00 | 0.00 | 41 | 1018.8 |
| 20260502161206 | 56 | 247 | 2.6 | 10.4 | 0.00 | 0.00 | 0.00 | 42 | 1018.8 |
| 20260502160707 | 56 | 224 | 4.3 | 7.0 | 0.00 | 0.00 | 0.00 | 41 | 1018.9 |
| 20260502160206 | 56 | 222 | 2.6 | 10.4 | 0.00 | 0.00 | 0.00 | 44 | 1018.9 |
| 20260502152206 | 55 | 247 | 3.5 | 8.7 | 0.00 | 0.00 | 0.00 | 44 | 1019.3 |
| 20260502151206 | 55 | 275 | 2.6 | 7.0 | 0.00 | 0.00 | 0.00 | 45 | 1019.4 |
| 20260502150706 | 55 | 259 | 1.7 | 7.8 | 0.00 | 0.00 | 0.00 | 50 | 1019.4 |
| 20260502130707 | 42 | 170 | 0.9 | 2.6 | 0.00 | 0.00 | 0.00 | 70 | 1020.1 |
| 20260502130207 | 41 | 169 | 1.7 | 2.6 | 0.00 | 0.00 | 0.00 | 70 | 1020.1 |
| 20260502123206 | 38 | 203 | 0.9 | 2.6 | 0.00 | 0.00 | 0.00 | 78 | 1020.0 |
| 20260502122706 | 37 | 207 | 0.9 | 2.6 | 0.00 | 0.00 | 0.00 | 79 | 1020.0 |
| 20260502122207 | 37 | 290 | 0.0 | 1.7 | 0.00 | 0.00 | 0.00 | 80 | 1019.9 |
| 20260502121707 | 36 | 290 | 0.0 | 0.0 | 0.00 | 0.00 | 0.00 | 80 | 1019.9 |
| 20260502121207 | 36 | 290 | 0.0 | 0.0 | 0.00 | 0.00 | 0.00 | 80 | 1020.0 |
| 20260502120707 | 36 | 290 | 0.0 | 0.0 | 0.00 | 0.00 | 0.00 | 80 | 1019.9 |
| 20260502120207 | 36 | 290 | 0.0 | 0.0 | 0.00 | 0.00 | 0.00 | 79 | 1019.9 |
| 20260502115706 | 36 | 290 | 0.0 | 0.0 | 0.00 | 0.00 | 0.00 | 80 | 1019.9 |
| 20260502115206 | 35 | 290 | 0.0 | 0.9 | 0.00 | 0.00 | 0.00 | 80 | 1019.8 |
| 20260502114706 | 35 | 290 | 0.9 | 1.7 | 0.00 | 0.00 | 0.00 | 80 | 1019.8 |
| 20260502114206 | 35 | 293 | 0.9 | 2.6 | 0.00 | 0.00 | 0.00 | 80 | 1019.8 |
| 20260502113706 | 35 | 210 | 0.0 | 1.7 | 0.00 | 0.00 | 0.00 | 79 | 1019.8 |
| 20260502113206 | 35 | 210 | 0.0 | 0.0 | 0.00 | 0.00 | 0.00 | 79 | 1019.8 |
| 20260502112706 | 35 | 210 | 0.0 | 0.9 | 0.00 | 0.00 | 0.00 | 78 | 1019.7 |
| 20260502112206 | 35 | 210 | 0.0 | 0.0 | 0.00 | 0.00 | 0.00 | 78 | 1019.7 |
| 20260502111706 | 35 | 210 | 0.0 | 0.0 | 0.00 | 0.00 | 0.00 | 77 | 1019.7 |
| 20260502111207 | 35 | 210 | 0.0 | 0.0 | 0.00 | 0.00 | 0.00 | 76 | 1019.6 |
| 20260502110707 | 36 | 210 | 0.0 | 0.0 | 0.00 | 0.00 | 0.00 | 76 | 1019.6 |
| 20260502110206 | 36 | 210 | 0.0 | 0.0 | 0.00 | 0.00 | 0.00 | 75 | 1019.6 |
| 20260502105706 | 36 | 210 | 0.0 | 0.0 | 0.00 | 0.00 | 0.00 | 75 | 1019.6 |
| 20260502105206 | 36 | 210 | 0.0 | 0.0 | 0.00 | 0.00 | 0.00 | 75 | 1019.6 |
| 20260502104706 | 36 | 210 | 0.0 | 0.0 | 0.00 | 0.00 | 0.00 | 74 | 1019.7 |
| 20260502104207 | 36 | 210 | 0.0 | 1.7 | 0.00 | 0.00 | 0.00 | 74 | 1019.7 |
| 20260502103206 | 37 | 210 | 0.0 | 1.7 | 0.00 | 0.00 | 0.00 | 73 | 1019.6 |
| 20260502102706 | 37 | 210 | 0.0 | 0.0 | 0.00 | 0.00 | 0.00 | 73 | 1019.6 |
| 20260502101207 | 37 | 210 | 0.0 | 0.9 | 0.00 | 0.00 | 0.00 | 71 | 1019.6 |
| 20260502100706 | 37 | 210 | 0.0 | 0.9 | 0.00 | 0.00 | 0.00 | 71 | 1019.6 |
| 20260502100206 | 37 | 210 | 0.0 | 0.0 | 0.00 | 0.00 | 0.00 | 71 | 1019.6 |
| 20260502091207 | 37 | 216 | 0.9 | 1.7 | 0.00 | 0.00 | 0.00 | 72 | 1019.5 |
| 20260502090707 | 37 | 222 | 0.9 | 2.6 | 0.00 | 0.00 | 0.00 | 72 | 1019.5 |
| 20260502090207 | 37 | 267 | 0.9 | 1.7 | 0.00 | 0.00 | 0.00 | 72 | 1019.5 |
| 20260502070705 | 39 | 267 | 0.0 | 0.9 | 0.00 | 0.00 | 0.00 | 72 | 1019.8 |
| 20260502070205 | 39 | 267 | 0.0 | 0.9 | 0.00 | 0.00 | 0.00 | 71 | 1019.8 |
| 20260502065704 | 39 | 267 | 0.0 | 0.0 | 0.00 | 0.00 | 0.00 | 71 | 1019.8 |
| 20260502065206 | 39 | 267 | 0.0 | 0.0 | 0.00 | 0.00 | 0.00 | 71 | 1019.8 |
| 20260502064705 | 39 | 267 | 0.0 | 0.0 | 0.00 | 0.00 | 0.00 | 70 | 1019.9 |
| 20260502064204 | 39 | 267 | 0.0 | 0.0 | 0.00 | 0.00 | 0.00 | 70 | 1019.9 |
| 20260502063704 | 39 | 267 | 0.0 | 0.9 | 0.00 | 0.00 | 0.00 | 70 | 1019.9 |
| 20260502062705 | 39 | 267 | 0.0 | 0.0 | 0.00 | 0.00 | 0.00 | 70 | 1019.9 |
| 20260502062205 | 39 | 267 | 0.0 | 0.0 | 0.00 | 0.00 | 0.00 | 70 | 1019.9 |
| 20260502061704 | 39 | 267 | 0.0 | 0.0 | 0.00 | 0.00 | 0.00 | 70 | 1019.8 |
| 20260502061204 | 39 | 267 | 0.0 | 0.0 | 0.00 | 0.00 | 0.00 | 70 | 1019.9 |
| 20260502060705 | 39 | 267 | 0.0 | 0.0 | 0.00 | 0.00 | 0.00 | 70 | 1019.9 |
| 20260502060204 | 39 | 267 | 0.0 | 0.0 | 0.00 | 0.00 | 0.00 | 70 | 1019.9 |
| 20260502055704 | 39 | 267 | 0.0 | 0.0 | 0.00 | 0.00 | 0.00 | 69 | 1019.9 |
| 20260502055205 | 39 | 267 | 0.0 | 0.0 | 0.00 | 0.00 | 0.00 | 69 | 1019.9 |
| 20260502054705 | 39 | 267 | 0.0 | 0.0 | 0.00 | 0.00 | 0.00 | 69 | 1020.0 |
| 20260502054205 | 39 | 267 | 0.0 | 0.0 | 0.00 | 0.00 | 0.00 | 69 | 1020.0 |
| 20260502053705 | 39 | 267 | 0.0 | 0.0 | 0.00 | 0.00 | 0.00 | 69 | 1020.0 |
| 20260502053205 | 39 | 267 | 0.0 | 0.0 | 0.00 | 0.00 | 0.00 | 69 | 1020.0 |
| 20260502052704 | 40 | 267 | 0.0 | 0.0 | 0.00 | 0.00 | 0.00 | 69 | 1019.9 |
| 20260502052205 | 40 | 267 | 0.0 | 0.0 | 0.00 | 0.00 | 0.00 | 68 | 1019.9 |
| 20260502051705 | 40 | 267 | 0.0 | 0.0 | 0.00 | 0.00 | 0.00 | 68 | 1019.9 |
| 20260502050704 | 40 | 267 | 0.0 | 0.0 | 0.00 | 0.00 | 0.00 | 67 | 1019.9 |
| 20260502050205 | 40 | 267 | 0.0 | 0.0 | 0.00 | 0.00 | 0.00 | 66 | 1019.9 |
| 20260502045205 | 40 | 267 | 0.0 | 0.0 | 0.00 | 0.00 | 0.00 | 66 | 1019.8 |
| 20260502044705 | 40 | 267 | 0.0 | 0.0 | 0.00 | 0.00 | 0.00 | 65 | 1019.8 |
| 20260502044205 | 40 | 267 | 0.0 | 0.0 | 0.00 | 0.00 | 0.00 | 65 | 1019.8 |
| 20260502043705 | 40 | 267 | 0.0 | 0.0 | 0.00 | 0.00 | 0.00 | 64 | 1019.8 |
| 20260502043205 | 40 | 267 | 0.0 | 0.0 | 0.00 | 0.00 | 0.00 | 64 | 1019.8 |
| 20260502042205 | 41 | 267 | 0.0 | 0.0 | 0.00 | 0.00 | 0.00 | 62 | 1019.8 |
| 20260502041705 | 41 | 267 | 0.0 | 0.0 | 0.00 | 0.00 | 0.00 | 62 | 1019.8 |
| 20260502040704 | 41 | 267 | 0.0 | 0.0 | 0.00 | 0.00 | 0.00 | 61 | 1019.8 |
| 20260502040206 | 42 | 267 | 0.0 | 0.0 | 0.00 | 0.00 | 0.00 | 60 | 1019.8 |
| 20260502035705 | 42 | 267 | 0.0 | 0.0 | 0.00 | 0.00 | 0.00 | 60 | 1019.8 |
| 20260502035205 | 42 | 267 | 0.0 | 0.0 | 0.00 | 0.00 | 0.00 | 59 | 1019.8 |
| 20260502034705 | 42 | 267 | 0.0 | 0.0 | 0.00 | 0.00 | 0.00 | 59 | 1019.8 |
| 20260502034205 | 42 | 267 | 0.0 | 0.9 | 0.00 | 0.00 | 0.00 | 57 | 1019.9 |
| 20260502033705 | 43 | 267 | 0.0 | 0.0 | 0.00 | 0.00 | 0.00 | 58 | 1019.9 |
| 20260502033205 | 43 | 267 | 0.0 | 0.0 | 0.00 | 0.00 | 0.00 | 57 | 1019.9 |
| 20260502032705 | 43 | 267 | 0.0 | 0.0 | 0.00 | 0.00 | 0.00 | 56 | 1019.9 |
| 20260502032206 | 43 | 267 | 0.0 | 0.0 | 0.00 | 0.00 | 0.00 | 55 | 1020.0 |
| 20260502031705 | 43 | 267 | 0.0 | 0.0 | 0.00 | 0.00 | 0.00 | 55 | 1019.9 |
| 20260502030705 | 43 | 267 | 0.0 | 0.0 | 0.00 | 0.00 | 0.00 | 54 | 1019.9 |
| 20260502030205 | 44 | 267 | 0.0 | 0.0 | 0.00 | 0.00 | 0.00 | 53 | 1019.9 |
| 20260502025204 | 44 | 267 | 0.0 | 0.0 | 0.00 | 0.00 | 0.00 | 52 | 1019.9 |
| 20260502024705 | 45 | 267 | 0.0 | 0.0 | 0.00 | 0.00 | 0.00 | 51 | 1019.9 |
| 20260502024205 | 45 | 267 | 0.0 | 0.0 | 0.00 | 0.00 | 0.00 | 50 | 1019.9 |
| 20260502023205 | 45 | 267 | 0.0 | 0.0 | 0.00 | 0.00 | 0.00 | 49 | 1019.8 |
| 20260502022706 | 46 | 267 | 0.0 | 0.0 | 0.00 | 0.00 | 0.00 | 48 | 1019.8 |
| 20260502021705 | 47 | 267 | 0.0 | 0.0 | 0.00 | 0.00 | 0.00 | 46 | 1019.8 |
| 20260502021205 | 47 | 267 | 0.0 | 0.0 | 0.00 | 0.00 | 0.00 | 45 | 1019.8 |
| 20260502020705 | 48 | 267 | 0.0 | 0.0 | 0.00 | 0.00 | 0.00 | 44 | 1019.7 |
| 20260502020205 | 48 | 267 | 0.0 | 0.0 | 0.00 | 0.00 | 0.00 | 42 | 1019.6 |
| 20260502015706 | 48 | 267 | 0.0 | 0.0 | 0.00 | 0.00 | 0.00 | 41 | 1019.6 |
| 20260502015205 | 49 | 267 | 0.9 | 1.7 | 0.00 | 0.00 | 0.00 | 41 | 1019.5 |
| 20260502014705 | 49 | 267 | 0.0 | 0.9 | 0.00 | 0.00 | 0.00 | 39 | 1019.5 |
| 20260502013705 | 50 | 267 | 0.0 | 1.7 | 0.00 | 0.00 | 0.00 | 39 | 1019.3 |
| 20260502013205 | 50 | 267 | 0.9 | 2.6 | 0.00 | 0.00 | 0.00 | 38 | 1019.3 |
| 20260502012705 | 50 | 266 | 1.7 | 2.6 | 0.00 | 0.00 | 0.00 | 38 | 1019.3 |
| 20260502012205 | 50 | 291 | 0.9 | 2.6 | 0.00 | 0.00 | 0.00 | 37 | 1019.3 |
| 20260502011705 | 51 | 282 | 0.9 | 2.6 | 0.00 | 0.00 | 0.00 | 38 | 1019.3 |
| 20260502011206 | 51 | 288 | 1.7 | 5.2 | 0.00 | 0.00 | 0.00 | 37 | 1019.2 |
| 20260502010705 | 51 | 288 | 0.9 | 2.6 | 0.00 | 0.00 | 0.00 | 37 | 1019.2 |
| 20260502010206 | 51 | 279 | 2.6 | 4.3 | 0.00 | 0.00 | 0.00 | 36 | 1019.2 |
| 20260502005707 | 51 | 271 | 1.7 | 7.0 | 0.00 | 0.00 | 0.00 | 35 | 1019.2 |
| 20260502005205 | 52 | 281 | 3.5 | 7.8 | 0.00 | 0.00 | 0.00 | 36 | 1019.2 |
| 20260502004205 | 52 | 343 | 2.6 | 4.3 | 0.00 | 0.00 | 0.00 | 33 | 1019.2 |
| 20260502003705 | 53 | 343 | 2.6 | 5.2 | 0.00 | 0.00 | 0.00 | 34 | 1019.2 |
| 20260502002706 | 54 | 316 | 1.7 | 4.3 | 0.00 | 0.00 | 0.00 | 33 | 1019.2 |
| 20260502001206 | 53 | 8 | 1.7 | 2.6 | 0.00 | 0.00 | 0.00 | 35 | 1019.1 |
| 20260502000706 | 53 | 340 | 0.9 | 2.6 | 0.00 | 0.00 | 0.00 | 35 | 1019.1 |
| 20260502000206 | 53 | 23 | 1.7 | 2.6 | 0.00 | 0.00 | 0.00 | 35 | 1019.1 |
| 20260501235705 | 53 | 293 | 4.3 | 7.8 | 0.00 | 0.00 | 0.00 | 35 | 1019.1 |
| 20260501235206 | 52 | 0 | 1.7 | 6.1 | 0.00 | 0.00 | 0.00 | 37 | 1019.2 |
| 20260501234706 | 52 | 289 | 2.6 | 6.1 | 0.00 | 0.00 | 0.00 | 35 | 1019.2 |
| 20260501234206 | 51 | 270 | 2.6 | 6.1 | 0.00 | 0.00 | 0.00 | 35 | 1019.1 |